Flight Track Log - Related Links

Times and Time Zones

All times are in EDT time to prevent confusion due to time zone crossing. See the N516QS flight status page for this flight to view local times or setup timezone preferences in your user account.

Time Position Orientation Groundspeed Altitude Reporting Facility
EDT Latitude Longitude Course Direction KTS MPH feet Rate Location/Type
Tue 02:14:13 PM 36.0747 -115.1714 212° Southwest 173 199 3,100  Level Los Angeles Center
Tue 02:15:38 PM 36.0044 -115.2264 212° Southwest 219 252 7,000 2,357 Climbing Los Angeles Center
Tue 02:16:33 PM 35.9756 -115.2917 241° Southwest 254 292 8,600 2,328 Climbing Los Angeles Center
Tue 02:17:34 PM 35.9314 -115.3778 238° Southwest 319 367 11,500 2,963 Climbing Los Angeles Center
Tue 02:19:13 PM 35.9194 -115.5867 266° West 393 452 16,500 3,019 Climbing Los Angeles Center
Tue 02:20:15 PM 35.9103 -115.7383 266° West 412 474 19,600 2,903 Climbing Los Angeles Center
Tue 02:21:17 PM 35.9200 -115.8853 275° West 438 504 22,500 2,516 Climbing Los Angeles Center
Tue 02:22:19 PM 36.0019 -116.0089 309° West 474 545 24,800 2,048 Climbing Los Angeles Center
Tue 02:23:23 PM 36.0978 -116.1322 314° West 493 567 26,800 2,371 Climbing Los Angeles Center
Tue 02:24:23 PM 36.2097 -116.2769 314° West 512 589 29,700 2,607 Climbing Los Angeles Center
Tue 02:25:25 PM 36.3094 -116.4069 314° West 519 597 32,100 2,323 Climbing Los Angeles Center
Tue 02:26:27 PM 36.4083 -116.5378 313° West 522 601 34,500 2,400 Climbing Los Angeles Center
Tue 02:27:30 PM 36.5064 -116.6661 314° West 518 596 37,100 2,400 Climbing Los Angeles Center
Tue 02:28:32 PM 36.5847 -116.8289 301° West 512 589 39,500 1,403 Climbing Los Angeles Center
Tue 02:29:34 PM 36.6178 -117.0069 283° West 492 566 40,000 242 Climbing Los Angeles Center
Tue 02:30:36 PM 36.6481 -117.1603 284° West 474 545 40,000  Level Los Angeles Center
Tue 02:31:38 PM 36.6775 -117.3183 283° West 470 541 40,000  Level Los Angeles Center
Tue 02:32:40 PM 36.7086 -117.4833 283° West 479 551 40,000  Level Los Angeles Center
Tue 02:33:42 PM 36.7389 -117.6475 283° West 485 558 40,000  Level Los Angeles Center
Tue 02:34:45 PM 36.7700 -117.8083 284° West 483 556 40,000  Level Los Angeles Center
Tue 02:35:47 PM 36.8053 -118.0000 283° West 487 560 40,000  Level Los Angeles Center
Tue 02:36:49 PM 36.8347 -118.1614 283° West 482 555 40,000  Level Los Angeles Center
Tue 02:37:51 PM 36.8647 -118.3228 283° West 478 550 40,000  Level Los Angeles Center
Tue 02:38:53 PM 36.8944 -118.4872 283° West 481 554 40,000  Level Los Angeles Center
Tue 02:39:49 PM 36.9214 -118.6492 282° West 482 555 40,000 -1,017 Level Oakland Center
Tue 02:40:51 PM 36.9519 -118.8236 282° West 480 552 38,000 -2,049 Descending Oakland Center
Tue 02:41:52 PM 36.9797 -118.9783 283° West 462 532 35,800 -2,244 Descending Oakland Center
Tue 02:42:54 PM 37.0089 -119.1489 282° West 466 536 33,400 -2,244 Descending Oakland Center
Tue 02:43:55 PM 37.0369 -119.3114 282° West 477 549 31,200 -2,146 Descending Oakland Center
Tue 02:44:57 PM 37.0647 -119.4775 282° West 486 559 29,000 -2,274 Descending Oakland Center
Tue 02:45:59 PM 37.0969 -119.6631 282° West 484 557 26,500 -2,293 Descending Oakland Center
Tue 02:47:00 PM 37.1239 -119.8247 282° West 476 548 24,300 -2,146 Descending Oakland Center
Tue 02:48:02 PM 37.1503 -119.9783 282° West 461 531 22,100 -1,984 Descending Oakland Center
Tue 02:49:04 PM 37.1744 -120.1272 282° West 445 512 20,200 -1,902 Descending Oakland Center
Tue 02:50:05 PM 37.1978 -120.2736 281° West 432 497 18,200 -1,854 Descending Oakland Center
Tue 02:51:07 PM 37.2114 -120.4183 277° West 417 480 16,400 -1,756 Descending Oakland Center
Tue 02:52:08 PM 37.1856 -120.5542 257° West 400 460 14,600 -1,805 Descending Oakland Center
Tue 02:53:10 PM 37.1581 -120.6828 255° West 385 443 12,700 -1,839 Descending Oakland Center
Tue 02:54:12 PM 37.1308 -120.8094 255° West 378 435 10,800 -1,306 Descending Oakland Center
Tue 02:55:14 PM 37.1003 -120.9544 255° West 363 418 10,000 -341 Descending Oakland Center
Tue 02:56:15 PM 37.0764 -121.0578 254° West 330 380 10,100  Climbing Oakland Center
Tue 02:57:16 PM 37.0650 -121.1581 262° West 288 331 10,000 -49 Descending Oakland Center
Tue 02:58:18 PM 37.0614 -121.2583 267° West 288 331 10,000 -537 Level Oakland Center
Tue 02:59:19 PM 37.0561 -121.3575 266° West 288 331 8,900 -976 Descending Oakland Center
Tue 03:00:21 PM 37.0517 -121.4550 267° West 284 327 8,000 -878 Descending Oakland Center
Tue 03:01:22 PM 37.0489 -121.5525 268° West 282 325 7,100 -878 Descending Oakland Center
Tue 03:02:24 PM 37.0964 -121.6278 308° West 289 333 6,200 -871 Descending Oakland Center
Tue 03:03:26 PM 37.1517 -121.6922 317° Northwest 279 321 5,300 -976 Descending Oakland Center
Tue 03:04:27 PM 37.1978 -121.7486 316° Northwest 252 290 4,200 -1,171 Descending Oakland Center
Tue 03:05:29 PM 37.2522 -121.8108 318° Northwest 232 267 2,900 -1,073 Descending Oakland Center
Tue 03:06:30 PM 37.2894 -121.8508 319° Northwest 199 229 2,000 -878 Descending Oakland Center
Tue 03:07:32 PM 37.3158 -121.8781 321° Northwest 156 180 1,100 -683 Descending Oakland Center
Tue 03:08:33 PM 37.3406 -121.9050 319° Northwest 131 151 600 9,220 Descending Oakland Center
Tue 03:09:35 PM 37.3644 -121.9308 319° Northwest 121 139 20,000 18,774 Climbing Oakland Center
Tue 03:11:00 PM 37.3627 -121.9291 North  Level Estimated

Login

Don't have an account? Register now (free) for customized features, flight alerts, and more!